Time;durP1;ratioP1;P1;durP2;ratioP2;P2;SDS_P1;SDS_P2;PMS_P1;PMS_P2;Temp;Humidity;BMP_temperature;BMP_pressure;BME280_temperature;BME280_humidity;BME280_pressure;Samples;Min_cycle;Max_cycle;Signal;HPM_P1;HPM_P2
2021/11/02 00:00:52;;;;;;;6.27;5.27;;;10.70;99.90;;;;;;5073792;28;20931;-68
2021/11/02 00:03:19;;;;;;;8.73;5.67;;;10.60;99.90;;;;;;5074339;28;20791;-68
2021/11/02 00:05:45;;;;;;;12.23;7.20;;;10.60;99.90;;;;;;5074320;28;20459;-68
2021/11/02 00:08:13;;;;;;;9.30;6.30;;;10.70;99.90;;;;;;5074276;28;20467;-68
2021/11/02 00:10:41;;;;;;;8.43;5.57;;;10.70;99.90;;;;;;5074184;28;20462;-68
2021/11/02 00:13:07;;;;;;;7.40;5.93;;;10.70;99.90;;;;;;5074104;28;20520;-68
2021/11/02 00:15:39;;;;;;;9.53;5.47;;;10.70;99.90;;;;;;5077626;28;20491;-68
2021/11/02 00:18:07;;;;;;;7.87;6.20;;;10.70;99.90;;;;;;5078202;28;20478;-68
2021/11/02 00:20:37;;;;;;;8.43;6.30;;;10.70;99.90;;;;;;5077658;28;20768;-68
2021/11/02 00:23:06;;;;;;;10.33;5.60;;;10.70;99.90;;;;;;5077848;28;20443;-68
2021/11/02 00:25:35;;;;;;;10.27;6.60;;;10.80;99.90;;;;;;5077666;28;20561;-68
2021/11/02 00:28:04;;;;;;;7.50;5.80;;;10.80;99.90;;;;;;5077639;28;20460;-68
2021/11/02 00:30:31;;;;;;;10.30;5.73;;;10.80;99.90;;;;;;5077660;28;20554;-68
2021/11/02 00:32:58;;;;;;;5.33;4.83;;;10.80;99.90;;;;;;5077858;28;20456;-68
2021/11/02 00:35:25;;;;;;;6.80;5.23;;;10.80;99.90;;;;;;5077530;28;20479;-68
2021/11/02 00:37:55;;;;;;;7.43;5.00;;;10.80;99.90;;;;;;5077386;28;20833;-69
2021/11/02 00:40:23;;;;;;;8.17;5.33;;;10.90;99.90;;;;;;5077542;28;20463;-68
2021/11/02 00:42:52;;;;;;;7.30;5.20;;;10.90;99.90;;;;;;5077507;28;20469;-68
2021/11/02 00:45:28;;;;;;;6.57;5.87;;;10.90;99.90;;;;;;5077001;28;20454;-68
2021/11/02 00:47:56;;;;;;;6.53;5.80;;;10.90;99.90;;;;;;5076892;28;20453;-68
2021/11/02 00:50:23;;;;;;;6.27;5.67;;;10.90;99.90;;;;;;5077507;28;20544;-68
2021/11/02 00:52:50;;;;;;;7.17;5.97;;;10.90;99.90;;;;;;5077277;28;20470;-68
2021/11/02 00:55:17;;;;;;;7.37;6.13;;;10.90;99.90;;;;;;5077339;28;20486;-68
2021/11/02 00:57:44;;;;;;;6.40;5.80;;;10.90;99.90;;;;;;5076952;28;20822;-68
2021/11/02 01:00:14;;;;;;;7.60;6.30;;;10.90;99.90;;;;;;5077416;28;20483;-68
2021/11/02 01:02:41;;;;;;;6.80;6.10;;;10.90;99.90;;;;;;5076864;28;20450;-68
2021/11/02 01:05:09;;;;;;;6.93;6.07;;;11.00;99.90;;;;;;5077237;28;20449;-69
2021/11/02 01:07:36;;;;;;;7.03;5.33;;;10.90;99.90;;;;;;5076817;28;20470;-68
2021/11/02 01:10:03;;;;;;;8.50;6.37;;;10.90;99.90;;;;;;5076908;28;20458;-68
2021/11/02 01:12:29;;;;;;;7.83;6.20;;;10.90;99.90;;;;;;5076751;28;20467;-68
2021/11/02 01:14:56;;;;;;;8.47;6.77;;;11.00;99.90;;;;;;5076678;28;20484;-69
2021/11/02 01:17:24;;;;;;;9.53;7.80;;;10.90;99.90;;;;;;5077034;28;20481;-69
2021/11/02 01:19:53;;;;;;;8.27;6.90;;;10.90;99.90;;;;;;5076643;28;20456;-69
2021/11/02 01:22:20;;;;;;;9.63;7.50;;;10.90;99.90;;;;;;5076886;28;20773;-69
2021/11/02 01:24:47;;;;;;;11.00;7.20;;;10.90;99.90;;;;;;5076647;28;20807;-69
2021/11/02 01:27:13;;;;;;;8.57;6.97;;;10.90;99.90;;;;;;5076539;28;20460;-69
2021/11/02 01:29:40;;;;;;;10.33;7.50;;;10.90;99.90;;;;;;5076631;28;20463;-69
2021/11/02 01:32:08;;;;;;;8.17;7.20;;;10.90;99.90;;;;;;5076473;28;20486;-69
2021/11/02 01:34:36;;;;;;;13.13;7.87;;;10.90;99.90;;;;;;5076691;28;20497;-69
2021/11/02 01:37:04;;;;;;;8.33;7.00;;;10.90;99.90;;;;;;5076770;28;20459;-69
2021/11/02 01:39:31;;;;;;;9.40;7.53;;;10.90;99.90;;;;;;5076323;28;20497;-69
2021/11/02 01:41:57;;;;;;;10.60;7.90;;;10.90;99.90;;;;;;5075991;28;20880;-69
2021/11/02 01:44:24;;;;;;;10.50;7.97;;;10.90;99.90;;;;;;5076248;28;20923;-68
2021/11/02 01:46:51;;;;;;;10.17;8.50;;;10.90;99.90;;;;;;5076503;28;20461;-69
2021/11/02 01:49:18;;;;;;;8.60;7.67;;;10.90;99.90;;;;;;5076000;28;20463;-69
2021/11/02 01:51:46;;;;;;;11.13;7.93;;;10.90;99.90;;;;;;5075754;28;20908;-69
2021/11/02 01:54:13;;;;;;;12.10;8.00;;;10.90;99.90;;;;;;5076072;28;20465;-68
2021/11/02 01:56:42;;;;;;;12.40;8.17;;;10.90;99.90;;;;;;5076288;28;20933;-68
2021/11/02 01:59:08;;;;;;;14.00;8.40;;;10.90;99.90;;;;;;5075975;28;20465;-69
2021/11/02 02:01:45;;;;;;;13.50;8.40;;;10.90;99.90;;;;;;5075813;28;20472;-69
2021/11/02 02:04:20;;;;;;;12.40;8.50;;;10.80;99.90;;;;;;5076337;28;20759;-69
2021/11/02 02:06:57;;;;;;;13.27;8.63;;;10.80;99.90;;;;;;5075709;28;20891;-69
2021/11/02 02:09:32;;;;;;;10.30;8.57;;;10.80;99.90;;;;;;5075485;28;20439;-69
2021/11/02 02:12:06;;;;;;;10.57;8.30;;;10.80;99.90;;;;;;5075725;28;20474;-69
2021/11/02 02:14:45;;;;;;;12.90;8.40;;;10.80;99.90;;;;;;5075262;28;20526;-69
2021/11/02 02:17:17;;;;;;;10.00;7.80;;;10.80;99.90;;;;;;5075435;28;20440;-69
2021/11/02 02:19:55;;;;;;;10.40;8.17;;;10.80;99.90;;;;;;5075871;28;20449;-69
2021/11/02 02:22:41;;;;;;;8.97;8.03;;;10.80;99.90;;;;;;5075744;28;20447;-69
2021/11/02 02:25:36;;;;;;;13.13;8.30;;;10.90;99.90;;;;;;5075436;28;20450;-69
2021/11/02 02:28:10;;;;;;;9.93;7.20;;;10.90;99.90;;;;;;5075370;28;20455;-69
2021/11/02 02:30:41;;;;;;;9.07;7.30;;;10.90;99.90;;;;;;5075500;28;20465;-69
2021/11/02 02:33:11;;;;;;;10.50;8.03;;;10.90;99.90;;;;;;5075747;28;20439;-69
2021/11/02 02:35:39;;;;;;;10.40;9.00;;;10.90;99.90;;;;;;5075230;28;20975;-69
2021/11/02 02:38:08;;;;;;;11.17;8.97;;;10.90;99.90;;;;;;5074931;28;20888;-69
2021/11/02 02:40:36;;;;;;;10.90;9.10;;;10.90;99.90;;;;;;5075122;28;20462;-68
2021/11/02 02:43:04;;;;;;;12.10;9.73;;;10.90;99.90;;;;;;5075290;28;20559;-69
2021/11/02 02:45:35;;;;;;;14.13;9.37;;;11.00;99.90;;;;;;5075447;28;20455;-69
2021/11/02 02:48:04;;;;;;;12.00;9.83;;;11.00;99.90;;;;;;5075087;28;20477;-69
2021/11/02 02:50:31;;;;;;;11.40;9.00;;;11.00;99.90;;;;;;5074901;28;20470;-69
2021/11/02 02:53:01;;;;;;;12.23;9.53;;;10.90;99.90;;;;;;5075272;28;20478;-68
2021/11/02 02:55:31;;;;;;;13.07;9.17;;;10.90;99.90;;;;;;5074859;28;20478;-69
2021/11/02 02:57:59;;;;;;;12.80;9.27;;;10.90;99.90;;;;;;5074759;28;20937;-69
2021/11/02 03:00:26;;;;;;;14.00;10.33;;;10.90;99.90;;;;;;5075119;28;20475;-69
2021/11/02 03:02:56;;;;;;;12.87;9.97;;;10.80;99.90;;;;;;5074887;28;20459;-69
2021/11/02 03:05:25;;;;;;;16.30;10.40;;;10.80;99.90;;;;;;5074808;28;20432;-69
2021/11/02 03:07:54;;;;;;;13.33;9.87;;;10.80;99.90;;;;;;5074747;28;20471;-69
2021/11/02 03:10:22;;;;;;;15.70;11.93;;;10.80;99.90;;;;;;5075290;28;20453;-69
2021/11/02 03:12:51;;;;;;;15.43;10.40;;;10.80;99.90;;;;;;5074664;28;20549;-68
2021/11/02 03:15:48;;;;;;;10.47;9.07;;;10.80;99.90;;;;;;5074870;28;20483;-68
2021/11/02 03:18:32;;;;;;;16.03;10.90;;;10.80;99.90;;;;;;5074855;28;20447;-68
2021/11/02 03:43:47;;;;;;;13.07;9.60;;;10.90;99.90;;;;;;5074699;28;20512;-69
2021/11/02 03:49:07;;;;;;;12.50;10.60;;;11.00;99.90;;;;;;5077983;28;20503;-69
2021/11/02 03:54:42;;;;;;;12.97;9.33;;;11.00;99.90;;;;;;5054072;28;20447;-69
2021/11/02 03:57:17;;;;;;;11.00;9.57;;;11.00;99.90;;;;;;5078862;28;20497;-69
2021/11/02 04:28:00;;;;;;;15.80;11.20;;;10.90;99.90;;;;;;5078101;28;20445;-69
2021/11/02 04:33:44;;;;;;;16.30;12.63;;;10.90;99.90;;;;;;5074405;28;20514;-67
2021/11/02 05:13:19;;;;;;;16.13;12.30;;;11.10;99.90;;;;;;5035212;28;20530;-68
2021/11/02 05:49:16;;;;;;;18.43;12.33;;;11.10;99.90;;;;;;5076958;28;20814;-69
2021/11/02 05:52:16;;;;;;;18.93;13.80;;;11.10;99.90;;;;;;5076358;28;20449;-69
2021/11/02 05:57:32;;;;;;;16.60;11.60;;;11.00;99.90;;;;;;5076399;28;20782;-69
2021/11/02 06:00:00;;;;;;;15.57;12.50;;;11.00;99.90;;;;;;5076264;28;20501;-69
2021/11/02 06:02:45;;;;;;;14.97;11.97;;;10.90;99.90;;;;;;5076417;28;20550;-69
2021/11/02 06:05:30;;;;;;;15.73;11.73;;;10.90;99.90;;;;;;5076118;28;20826;-69
2021/11/02 06:08:24;;;;;;;16.60;11.37;;;11.00;99.90;;;;;;5076089;28;20460;-69
2021/11/02 06:11:10;;;;;;;17.20;12.70;;;11.00;99.90;;;;;;5075038;28;20530;-69
2021/11/02 06:27:53;;;;;;;20.77;13.50;;;11.10;99.90;;;;;;5075661;28;20426;-69
2021/11/02 06:30:26;;;;;;;17.33;12.70;;;11.10;99.90;;;;;;5075275;28;20439;-69
2021/11/02 06:33:02;;;;;;;15.67;12.00;;;11.10;99.90;;;;;;5075291;28;20474;-69
2021/11/02 06:35:32;;;;;;;17.40;12.00;;;11.10;99.90;;;;;;5075171;28;20477;-69
2021/11/02 06:38:28;;;;;;;22.63;13.13;;;11.10;99.90;;;;;;5075131;28;20465;-69
2021/11/02 06:49:29;;;;;;;22.10;13.70;;;11.10;99.90;;;;;;5072960;28;20449;-69
2021/11/02 06:58:51;;;;;;;16.60;11.83;;;11.10;99.90;;;;;;5112228;27;21048;-69
2021/11/02 07:18:10;;;;;;;15.93;12.60;;;11.10;99.90;;;;;;5108853;28;20457;-69
2021/11/02 07:20:44;;;;;;;22.13;13.77;;;11.20;99.90;;;;;;5113468;28;20447;-69
2021/11/02 07:23:24;;;;;;;18.80;13.60;;;11.20;99.90;;;;;;5115076;28;20442;-69
2021/11/02 07:26:03;;;;;;;21.50;13.63;;;11.20;99.90;;;;;;5114087;28;20893;-69
2021/11/02 07:28:59;;;;;;;19.20;13.00;;;11.20;99.90;;;;;;5115309;28;20442;-69
2021/11/02 08:46:58;;;;;;;17.07;11.80;;;11.00;99.90;;;;;;5096190;28;20754;-69
2021/11/02 08:49:26;;;;;;;19.63;12.57;;;11.00;99.90;;;;;;5096553;28;20438;-69
2021/11/02 08:51:56;;;;;;;14.40;11.30;;;11.10;99.90;;;;;;5096237;28;20457;-69
2021/11/02 08:54:24;;;;;;;14.57;12.90;;;11.10;99.90;;;;;;5096673;28;20459;-69
2021/11/02 08:56:53;;;;;;;17.43;12.80;;;11.10;99.90;;;;;;5095701;28;20529;-69
2021/11/02 08:59:20;;;;;;;18.20;13.43;;;11.10;99.90;;;;;;5096111;28;20451;-69
2021/11/02 09:01:50;;;;;;;15.10;12.23;;;11.10;99.90;;;;;;5096379;28;20455;-69
2021/11/02 09:04:18;;;;;;;19.07;13.13;;;11.10;99.90;;;;;;5096322;28;20445;-69
2021/11/02 09:06:50;;;;;;;16.83;13.37;;;11.10;99.90;;;;;;5095702;28;20903;-69
2021/11/02 09:09:18;;;;;;;15.47;11.80;;;11.10;99.90;;;;;;5096345;28;20503;-69
2021/11/02 09:11:48;;;;;;;19.87;13.10;;;11.10;99.90;;;;;;5095939;28;20461;-69
2021/11/02 09:14:17;;;;;;;18.80;12.73;;;11.20;99.90;;;;;;5096371;28;20822;-69
2021/11/02 09:16:47;;;;;;;16.17;13.37;;;11.20;99.90;;;;;;5095679;28;20479;-69
2021/11/02 09:19:14;;;;;;;16.63;11.90;;;11.20;99.90;;;;;;5095585;28;20461;-69
2021/11/02 09:21:45;;;;;;;17.20;12.67;;;11.20;99.90;;;;;;5095725;28;20453;-69
2021/11/02 09:24:15;;;;;;;18.80;13.87;;;11.20;99.90;;;;;;5096168;28;20533;-69
2021/11/02 09:26:43;;;;;;;18.87;13.93;;;11.30;99.90;;;;;;5096043;28;20481;-70
2021/11/02 09:29:11;;;;;;;22.87;14.50;;;11.30;99.90;;;;;;5095878;28;20453;-69
2021/11/02 09:31:38;;;;;;;20.47;14.13;;;11.40;99.90;;;;;;5096074;28;20451;-70
2021/11/02 09:34:05;;;;;;;21.47;13.77;;;11.40;99.90;;;;;;5095732;28;20454;-70
2021/11/02 09:36:40;;;;;;;18.17;13.20;;;11.50;99.90;;;;;;5095833;28;20493;-70
2021/11/02 09:39:10;;;;;;;18.93;14.23;;;11.50;99.90;;;;;;5096121;28;20504;-69
2021/11/02 09:42:06;;;;;;;21.53;16.20;;;11.60;99.90;;;;;;5096206;28;20572;-69
2021/11/02 09:45:12;;;;;;;20.73;15.40;;;11.60;99.90;;;;;;5095808;28;20446;-68
2021/11/02 09:48:14;;;;;;;20.63;13.93;;;11.70;99.90;;;;;;5066148;28;20461;-69
2021/11/02 09:51:32;;;;;;;22.10;15.00;;;11.70;99.90;;;;;;5095334;28;20437;-70
2021/11/02 09:54:35;;;;;;;24.80;15.63;;;11.80;99.90;;;;;;5091544;28;20481;-67
2021/11/02 09:57:27;;;;;;;23.63;16.80;;;11.80;99.90;;;;;;5094859;28;20488;-68
2021/11/02 10:00:10;;;;;;;24.93;16.97;;;11.80;99.90;;;;;;5094913;28;20508;-68
2021/11/02 10:03:09;;;;;;;24.73;15.20;;;11.80;99.90;;;;;;5095504;28;20837;-70
2021/11/02 10:05:59;;;;;;;25.77;16.57;;;11.80;99.90;;;;;;5094936;28;20487;-68
2021/11/02 10:08:44;;;;;;;28.30;17.27;;;11.80;99.90;;;;;;5093955;28;20918;-69
2021/11/02 10:11:23;;;;;;;24.90;17.63;;;11.80;99.90;;;;;;5094725;28;20449;-68
2021/11/02 10:14:10;;;;;;;23.07;17.07;;;11.80;99.90;;;;;;5094889;28;20830;-70
2021/11/02 10:17:01;;;;;;;26.70;18.87;;;11.80;99.90;;;;;;5078861;28;20477;-69
2021/11/02 10:20:05;;;;;;;25.30;18.13;;;11.70;99.90;;;;;;5094677;28;20441;-69
2021/11/02 10:23:09;;;;;;;21.67;16.53;;;11.80;99.90;;;;;;5084980;28;20817;-69
2021/11/02 10:26:15;;;;;;;22.73;17.00;;;11.90;99.90;;;;;;5091522;28;20929;-69
2021/11/02 10:29:04;;;;;;;25.10;18.57;;;11.90;99.90;;;;;;5094894;28;20440;-69
2021/11/02 10:31:34;;;;;;;21.60;16.00;;;11.80;99.90;;;;;;5094230;28;20962;-70
2021/11/02 10:34:07;;;;;;;24.67;16.73;;;11.90;99.90;;;;;;5094201;28;20548;-69
2021/11/02 10:36:36;;;;;;;22.20;17.40;;;11.90;99.90;;;;;;5094151;28;20449;-69
2021/11/02 10:39:22;;;;;;;28.93;18.83;;;11.90;99.90;;;;;;5094247;28;20450;-69
2021/11/02 10:42:26;;;;;;;23.33;16.33;;;12.00;99.90;;;;;;5094083;28;20464;-69
2021/11/02 10:44:59;;;;;;;19.47;14.87;;;12.10;99.90;;;;;;5094030;28;20535;-69
2021/11/02 10:47:39;;;;;;;23.97;16.47;;;12.20;99.90;;;;;;5094477;28;20457;-69
2021/11/02 10:50:09;;;;;;;30.17;16.20;;;12.30;99.90;;;;;;5095159;28;20893;-69
2021/11/02 10:52:37;;;;;;;20.83;16.10;;;12.30;99.90;;;;;;5094067;28;20450;-69
2021/11/02 10:55:18;;;;;;;20.40;16.17;;;12.50;99.90;;;;;;5094838;28;20457;-69
2021/11/02 10:58:12;;;;;;;17.27;14.30;;;12.50;99.90;;;;;;5094508;28;20489;-67
2021/11/02 11:00:42;;;;;;;16.17;12.90;;;12.60;99.90;;;;;;5093925;28;20457;-68
2021/11/02 11:03:10;;;;;;;13.63;11.33;;;12.70;99.90;;;;;;5094359;28;20780;-70
2021/11/02 11:05:38;;;;;;;16.83;12.37;;;12.70;99.90;;;;;;5094278;28;20456;-70
2021/11/02 11:08:05;;;;;;;12.63;11.10;;;12.80;99.90;;;;;;5094337;28;20488;-69
2021/11/02 11:10:34;;;;;;;19.57;14.83;;;12.80;99.90;;;;;;5093884;28;20917;-70
2021/11/02 11:13:02;;;;;;;16.83;14.00;;;12.90;99.90;;;;;;5094421;28;20469;-69
2021/11/02 11:15:31;;;;;;;16.70;13.40;;;12.90;99.90;;;;;;5094457;28;20476;-70
2021/11/02 11:18:04;;;;;;;16.00;11.93;;;12.90;99.90;;;;;;5094099;28;20495;-69
2021/11/02 11:20:32;;;;;;;17.87;11.37;;;12.80;99.90;;;;;;5094411;28;20442;-70
2021/11/02 11:23:04;;;;;;;14.37;10.70;;;12.80;99.90;;;;;;5093940;28;20501;-69
2021/11/02 11:25:35;;;;;;;14.70;12.20;;;12.70;99.90;;;;;;5094124;28;20808;-70
2021/11/02 11:28:04;;;;;;;15.50;12.37;;;12.70;99.90;;;;;;5094085;28;20434;-70
2021/11/02 11:30:34;;;;;;;13.63;10.50;;;12.70;99.90;;;;;;5093719;28;20927;-69
2021/11/02 11:33:06;;;;;;;13.90;10.07;;;12.70;99.90;;;;;;5093606;28;20461;-69
2021/11/02 11:35:36;;;;;;;13.13;10.40;;;12.70;99.90;;;;;;5093631;28;20928;-70
2021/11/02 11:38:05;;;;;;;12.10;10.80;;;12.80;99.90;;;;;;5093578;28;20477;-69
2021/11/02 11:40:34;;;;;;;15.40;11.80;;;12.90;99.90;;;;;;5094302;28;20831;-69
2021/11/02 11:43:05;;;;;;;12.90;10.37;;;13.00;99.90;;;;;;5095185;28;20461;-69
2021/11/02 11:45:33;;;;;;;13.83;10.30;;;13.10;99.90;;;;;;5098572;28;20769;-69
2021/11/02 11:48:09;;;;;;;10.30;8.93;;;13.10;99.90;;;;;;5097619;28;20464;-69
2021/11/02 11:50:37;;;;;;;14.57;11.13;;;13.00;99.90;;;;;;5098040;28;20538;-70
2021/11/02 11:53:04;;;;;;;14.80;12.20;;;13.00;99.90;;;;;;5097931;28;20759;-70
2021/11/02 11:55:33;;;;;;;14.20;11.93;;;12.90;99.90;;;;;;5097062;28;20839;-69
2021/11/02 11:58:12;;;;;;;20.87;12.80;;;12.80;99.90;;;;;;5097044;28;20480;-69
2021/11/02 12:00:43;;;;;;;16.00;13.87;;;12.60;99.90;;;;;;5097371;28;20805;-69
2021/11/02 12:03:17;;;;;;;21.90;14.17;;;12.50;99.90;;;;;;5097655;28;20729;-69
2021/11/02 12:05:47;;;;;;;15.33;12.00;;;12.40;99.90;;;;;;5097409;28;20586;-69
2021/11/02 12:08:23;;;;;;;14.40;12.50;;;12.40;99.90;;;;;;5096941;28;20489;-69
2021/11/02 12:10:52;;;;;;;16.23;11.80;;;12.30;99.90;;;;;;5096870;28;20514;-69
2021/11/02 12:13:21;;;;;;;14.73;13.17;;;12.40;99.90;;;;;;5097290;28;20461;-69
2021/11/02 12:16:09;;;;;;;15.80;12.10;;;12.40;99.90;;;;;;5098810;28;20505;-69
2021/11/02 12:18:41;;;;;;;18.83;12.60;;;12.50;99.90;;;;;;5097822;28;20556;-69
2021/11/02 12:21:12;;;;;;;18.40;11.10;;;12.70;99.90;;;;;;5097671;28;20886;-69
2021/11/02 12:23:41;;;;;;;15.00;11.60;;;12.80;99.90;;;;;;5096886;28;20445;-69
2021/11/02 12:26:08;;;;;;;17.10;12.20;;;13.00;99.90;;;;;;5096975;28;20848;-69
2021/11/02 12:28:40;;;;;;;14.87;11.23;;;13.20;99.90;;;;;;5096960;28;20476;-70
2021/11/02 12:31:26;;;;;;;18.43;11.30;;;13.30;99.90;;;;;;5097216;28;20886;-69
2021/11/02 12:33:54;;;;;;;20.17;12.03;;;13.40;99.90;;;;;;5096956;28;20751;-69
2021/11/02 12:36:22;;;;;;;15.27;12.03;;;13.40;99.90;;;;;;5096848;28;20511;-69
2021/11/02 12:38:49;;;;;;;12.27;11.00;;;13.40;99.90;;;;;;5096857;28;20485;-69
2021/11/02 12:41:18;;;;;;;11.60;10.40;;;13.40;99.90;;;;;;5096355;28;20929;-70
2021/11/02 12:43:49;;;;;;;22.97;11.73;;;13.50;99.90;;;;;;5096982;28;20469;-69
2021/11/02 12:46:18;;;;;;;12.30;10.80;;;13.60;99.90;;;;;;5096892;28;20468;-70
2021/11/02 12:48:47;;;;;;;16.57;11.70;;;13.70;99.90;;;;;;5096871;28;20481;-70
2021/11/02 12:51:22;;;;;;;13.67;9.93;;;13.90;99.90;;;;;;5096668;28;20464;-70
2021/11/02 12:53:56;;;;;;;11.13;9.90;;;14.00;99.90;;;;;;5096155;28;20464;-70
2021/11/02 12:56:24;;;;;;;11.60;10.40;;;14.20;99.90;;;;;;5095906;28;20522;-68
2021/11/02 12:59:02;;;;;;;15.00;10.87;;;14.50;99.90;;;;;;5096273;28;20794;-68
2021/11/02 13:01:35;;;;;;;15.80;11.03;;;14.70;99.90;;;;;;5096375;28;20770;-68
2021/11/02 13:04:06;;;;;;;16.57;10.60;;;14.80;99.90;;;;;;5096449;28;20818;-69
2021/11/02 13:06:44;;;;;;;14.53;10.43;;;15.00;99.90;;;;;;5096563;28;20465;-69
2021/11/02 13:09:16;;;;;;;11.57;10.37;;;15.40;99.90;;;;;;5096260;28;20434;-68
2021/11/02 13:11:43;;;;;;;11.80;10.57;;;15.60;99.90;;;;;;5096182;28;20434;-69
2021/11/02 13:14:15;;;;;;;12.20;10.30;;;15.90;99.90;;;;;;5096006;28;20462;-69
2021/11/02 13:16:57;;;;;;;10.93;9.83;;;16.20;99.90;;;;;;5096150;28;20897;-68
2021/11/02 13:19:26;;;;;;;10.70;9.60;;;16.50;99.90;;;;;;5096050;28;20517;-69
2021/11/02 13:21:53;;;;;;;13.73;10.33;;;16.40;99.90;;;;;;5096259;28;20601;-69
2021/11/02 13:24:25;;;;;;;11.80;10.07;;;16.20;99.90;;;;;;5095997;28;20834;-69
2021/11/02 13:26:56;;;;;;;11.90;10.67;;;15.90;99.90;;;;;;5095776;28;20438;-70
2021/11/02 13:29:25;;;;;;;13.00;11.53;;;15.60;99.90;;;;;;5096423;28;20465;-70
2021/11/02 13:31:53;;;;;;;12.13;10.90;;;15.30;99.90;;;;;;5095974;28;20788;-70
2021/11/02 13:34:33;;;;;;;12.50;11.20;;;14.90;99.90;;;;;;5095925;28;20522;-69
2021/11/02 13:37:01;;;;;;;13.50;11.53;;;14.70;99.90;;;;;;5095918;28;20464;-70
2021/11/02 13:39:29;;;;;;;13.70;10.90;;;14.50;99.90;;;;;;5095414;28;20485;-69
2021/11/02 13:41:56;;;;;;;13.27;11.90;;;14.40;99.90;;;;;;5095348;28;20454;-70
2021/11/02 13:44:25;;;;;;;13.47;11.50;;;14.30;99.90;;;;;;5096236;28;20458;-70
2021/11/02 13:46:56;;;;;;;13.37;11.20;;;14.20;99.90;;;;;;5095536;28;20458;-70
2021/11/02 13:49:23;;;;;;;18.27;12.27;;;14.10;99.90;;;;;;5095045;28;20901;-69
2021/11/02 13:51:51;;;;;;;14.93;11.20;;;14.10;99.90;;;;;;5095280;28;20465;-68
2021/11/02 13:54:19;;;;;;;11.53;10.53;;;14.00;99.90;;;;;;5094997;28;20449;-70
2021/11/02 13:56:47;;;;;;;12.47;11.13;;;13.90;99.90;;;;;;5095083;28;20493;-70
2021/11/02 13:59:15;;;;;;;12.63;11.20;;;13.70;99.90;;;;;;5095120;28;20481;-69
2021/11/02 14:01:45;;;;;;;14.20;12.70;;;13.50;99.90;;;;;;5095954;28;20828;-69
2021/11/02 14:04:15;;;;;;;13.80;12.40;;;13.50;99.90;;;;;;5096078;28;20442;-69
2021/11/02 14:06:46;;;;;;;15.30;13.53;;;13.40;99.90;;;;;;5096453;28;20458;-70
2021/11/02 14:09:15;;;;;;;15.93;12.27;;;13.40;99.90;;;;;;5096862;28;20804;-69
2021/11/02 14:11:42;;;;;;;15.43;12.47;;;13.50;99.90;;;;;;5096321;28;20468;-70
2021/11/02 14:14:32;;;;;;;17.77;14.27;;;13.50;99.90;;;;;;5095959;28;20458;-69
2021/11/02 14:17:15;;;;;;;20.80;12.70;;;13.50;99.90;;;;;;5095401;28;20758;-73
2021/11/02 14:19:43;;;;;;;17.20;12.17;;;13.50;99.90;;;;;;5094873;28;20466;-68
2021/11/02 14:22:14;;;;;;;13.13;11.27;;;13.50;99.90;;;;;;5095743;28;20826;-70
2021/11/02 14:24:42;;;;;;;12.40;11.10;;;13.60;99.90;;;;;;5095370;28;20442;-72
2021/11/02 14:27:11;;;;;;;16.13;12.03;;;13.60;99.90;;;;;;5095727;28;20515;-71
2021/11/02 14:29:49;;;;;;;11.63;9.50;;;13.50;99.90;;;;;;5094876;28;20487;-69
2021/11/02 14:32:55;;;;;;;12.00;9.83;;;13.40;99.90;;;;;;5094647;28;20446;-69
2021/11/02 14:35:55;;;;;;;12.63;9.43;;;13.40;99.90;;;;;;5094814;28;20457;-71
2021/11/02 14:38:26;;;;;;;12.47;8.93;;;13.40;99.90;;;;;;5013437;28;20805;-69
2021/11/02 14:40:55;;;;;;;11.07;8.90;;;13.40;99.90;;;;;;5014103;28;20464;-70
2021/11/02 14:43:27;;;;;;;9.77;6.67;;;13.40;99.90;;;;;;5054771;28;20453;-69
2021/11/02 14:45:56;;;;;;;16.27;6.87;;;13.40;99.90;;;;;;5102051;28;20441;-70
2021/11/02 14:48:49;;;;;;;12.30;6.80;;;13.40;99.90;;;;;;5105585;28;21025;-69
2021/11/02 14:51:27;;;;;;;8.37;6.53;;;13.40;99.90;;;;;;5100610;28;20452;-69
2021/11/02 14:54:01;;;;;;;7.23;6.30;;;13.50;99.90;;;;;;5101593;28;20495;-70
2021/11/02 14:56:35;;;;;;;7.80;6.43;;;13.50;99.90;;;;;;5101315;28;20477;-69
2021/11/02 14:59:03;;;;;;;8.40;6.13;;;13.60;99.90;;;;;;5096908;28;20482;-70
2021/11/02 15:02:04;;;;;;;10.13;6.80;;;13.70;99.90;;;;;;5094596;28;20450;-70
2021/11/02 15:04:33;;;;;;;7.90;5.83;;;13.70;99.90;;;;;;5094683;28;20507;-71
2021/11/02 15:07:02;;;;;;;6.53;5.93;;;13.70;99.90;;;;;;5094078;28;20457;-70
2021/11/02 15:09:31;;;;;;;8.47;5.50;;;13.70;99.90;;;;;;5094433;28;20453;-68
2021/11/02 15:11:59;;;;;;;8.87;5.70;;;13.60;99.90;;;;;;5093826;28;20497;-70
2021/11/02 15:14:28;;;;;;;5.63;5.10;;;13.60;99.90;;;;;;5094270;28;20465;-69
2021/11/02 15:16:58;;;;;;;7.60;5.70;;;13.50;99.90;;;;;;5094302;28;20786;-69
2021/11/02 15:19:26;;;;;;;5.93;5.10;;;13.40;99.90;;;;;;5097090;28;20941;-69
2021/11/02 15:22:06;;;;;;;9.00;5.50;;;13.40;99.90;;;;;;5097932;28;20518;-71
2021/11/02 15:24:35;;;;;;;9.13;5.70;;;13.40;99.90;;;;;;5098010;28;20456;-68
2021/11/02 15:27:04;;;;;;;7.13;5.80;;;13.30;99.90;;;;;;5098215;28;20540;-68
2021/11/02 15:29:34;;;;;;;7.57;5.93;;;13.20;99.90;;;;;;5097952;28;20468;-68
2021/11/02 15:32:07;;;;;;;5.97;5.37;;;13.10;99.90;;;;;;5097727;28;20457;-68
2021/11/02 15:34:45;;;;;;;6.20;5.60;;;13.10;99.90;;;;;;5097872;28;20548;-69
2021/11/02 15:37:15;;;;;;;7.17;5.40;;;13.10;99.90;;;;;;5097938;28;20448;-68
2021/11/02 15:39:42;;;;;;;10.90;6.67;;;13.00;99.90;;;;;;5097244;28;20981;-69
2021/11/02 15:42:22;;;;;;;8.10;6.63;;;12.90;99.90;;;;;;5098013;28;20522;-68
2021/11/02 15:44:50;;;;;;;7.70;6.37;;;12.90;99.90;;;;;;5097802;28;20881;-70
2021/11/02 15:47:17;;;;;;;8.97;5.40;;;12.80;99.90;;;;;;5098168;28;20495;-68
2021/11/02 15:49:46;;;;;;;7.23;6.00;;;12.80;99.90;;;;;;5098015;28;20465;-74
2021/11/02 15:52:17;;;;;;;8.43;5.37;;;12.80;99.90;;;;;;5097559;28;20854;-69
2021/11/02 15:54:45;;;;;;;5.50;4.97;;;12.70;99.90;;;;;;5097875;28;20820;-68
2021/11/02 15:57:13;;;;;;;5.57;5.07;;;12.70;99.90;;;;;;5097258;28;20954;-69
2021/11/02 15:59:40;;;;;;;8.80;5.40;;;12.60;99.90;;;;;;5097658;28;20480;-69
2021/11/02 16:02:07;;;;;;;7.20;6.20;;;12.60;99.90;;;;;;5097596;28;20881;-69
2021/11/02 16:04:33;;;;;;;6.47;5.87;;;12.60;99.90;;;;;;5097824;28;20461;-69
2021/11/02 16:07:06;;;;;;;8.67;6.17;;;12.50;99.90;;;;;;5097434;28;20461;-70
2021/11/02 16:09:51;;;;;;;8.20;5.00;;;12.50;99.90;;;;;;5097737;28;20581;-71
2021/11/02 16:12:26;;;;;;;11.13;6.27;;;12.50;99.90;;;;;;5095363;28;20469;-69
2021/11/02 16:14:59;;;;;;;6.80;5.87;;;12.50;99.90;;;;;;5097581;28;20459;-69
2021/11/02 16:17:29;;;;;;;6.43;5.50;;;12.50;99.90;;;;;;5097414;28;20446;-69
2021/11/02 16:19:58;;;;;;;8.77;5.40;;;12.50;99.90;;;;;;5097293;28;20480;-69
2021/11/02 16:22:26;;;;;;;8.27;5.47;;;12.40;99.90;;;;;;5097359;28;20827;-69
2021/11/02 16:25:09;;;;;;;8.77;4.90;;;12.40;99.90;;;;;;5097453;28;20491;-69
2021/11/02 16:27:36;;;;;;;5.63;4.60;;;12.40;99.90;;;;;;5097088;28;20779;-70
2021/11/02 16:30:16;;;;;;;9.60;5.73;;;12.40;99.90;;;;;;5096864;28;20548;-69
2021/11/02 16:32:45;;;;;;;11.77;6.90;;;12.40;99.90;;;;;;5096690;28;20438;-69
2021/11/02 16:35:12;;;;;;;9.53;6.50;;;12.40;99.90;;;;;;5097890;28;20811;-70
2021/11/02 16:37:41;;;;;;;6.30;5.70;;;12.40;99.90;;;;;;5098163;28;20789;-69
2021/11/02 16:40:20;;;;;;;10.10;6.40;;;12.30;99.90;;;;;;5097582;28;20507;-70
2021/11/02 16:42:58;;;;;;;7.57;6.87;;;12.30;99.90;;;;;;5097813;28;20609;-70
2021/11/02 16:45:30;;;;;;;8.57;7.77;;;12.30;99.90;;;;;;5097044;28;20449;-69
2021/11/02 16:47:58;;;;;;;12.23;8.80;;;12.30;99.90;;;;;;5096921;28;20823;-69
2021/11/02 16:50:30;;;;;;;10.37;7.17;;;12.30;99.90;;;;;;5097232;28;20452;-69
2021/11/02 16:53:12;;;;;;;10.33;7.90;;;12.20;99.90;;;;;;5097102;28;20472;-70
2021/11/02 16:55:41;;;;;;;6.93;6.30;;;12.20;99.90;;;;;;5096557;28;20468;-69
2021/11/02 16:58:26;;;;;;;8.63;7.10;;;12.20;99.90;;;;;;5097496;28;20545;-69
2021/11/02 17:01:12;;;;;;;8.00;7.07;;;12.20;99.90;;;;;;5095320;28;20854;-68
2021/11/02 17:03:39;;;;;;;11.33;8.17;;;12.20;99.90;;;;;;5096505;28;20453;-69
2021/11/02 17:06:15;;;;;;;10.87;7.73;;;12.20;99.90;;;;;;5096580;28;20475;-74
2021/11/02 17:08:58;;;;;;;11.13;7.63;;;12.20;99.90;;;;;;5096350;28;20445;-68
2021/11/02 17:11:26;;;;;;;9.13;7.23;;;12.20;99.90;;;;;;5096437;28;20438;-69
2021/11/02 17:13:53;;;;;;;9.33;7.43;;;12.20;99.90;;;;;;5096717;28;20525;-69
2021/11/02 17:16:21;;;;;;;7.10;6.40;;;12.20;99.90;;;;;;5096681;28;20872;-69
2021/11/02 17:18:52;;;;;;;12.40;7.97;;;12.20;99.90;;;;;;5097664;28;20760;-69
2021/11/02 17:21:21;;;;;;;9.37;7.70;;;12.20;99.90;;;;;;5098564;28;20470;-69